createdAt,value
2022-11-15T00:00:05.382Z,8.16
2022-11-15T00:01:05.383Z,8.20
2022-11-15T00:02:05.436Z,8.12
2022-11-15T00:03:05.381Z,8.10
2022-11-15T00:04:05.394Z,8.15
2022-11-15T00:05:05.396Z,8.15
2022-11-15T00:06:05.425Z,8.20
2022-11-15T00:07:05.446Z,8.20
2022-11-15T00:08:05.463Z,8.18
2022-11-15T00:09:05.409Z,8.26
2022-11-15T00:10:05.407Z,8.23
2022-11-15T00:11:05.409Z,8.18
2022-11-15T00:12:05.416Z,8.27
2022-11-15T00:13:05.415Z,8.24
2022-11-15T00:14:05.425Z,8.24
2022-11-15T00:15:05.428Z,8.18
2022-11-15T00:16:05.425Z,8.18
2022-11-15T00:17:05.427Z,8.19
2022-11-15T00:18:05.434Z,8.24
2022-11-15T00:19:05.433Z,8.16
2022-11-15T00:20:05.434Z,8.16
2022-11-15T00:21:05.447Z,8.15
2022-11-15T00:22:05.464Z,8.16
2022-11-15T00:23:05.446Z,8.20
2022-11-15T00:24:05.449Z,8.23
2022-11-15T00:25:05.452Z,8.23
2022-11-15T00:26:05.460Z,8.23
2022-11-15T00:27:07.936Z,8.26
2022-11-15T00:28:05.465Z,8.24
2022-11-15T00:29:05.468Z,8.19
2022-11-15T00:30:05.467Z,8.28
2022-11-15T00:31:05.475Z,8.24
2022-11-15T00:32:05.473Z,8.20
2022-11-15T00:33:05.478Z,8.16
2022-11-15T00:34:05.480Z,8.15
2022-11-15T00:35:05.487Z,8.19
2022-11-15T00:36:05.514Z,8.23
2022-11-15T00:37:05.495Z,8.15
2022-11-15T00:38:05.521Z,8.16
2022-11-15T00:39:05.502Z,8.12
2022-11-15T00:40:05.498Z,8.13
2022-11-15T00:41:09.336Z,8.10
2022-11-15T00:42:05.513Z,8.12
2022-11-15T00:43:05.514Z,8.12
2022-11-15T00:44:05.512Z,8.13
2022-11-15T00:45:05.523Z,8.13
2022-11-15T00:46:05.519Z,8.13
2022-11-15T00:47:05.528Z,8.15
2022-11-15T00:48:05.523Z,8.15
2022-11-15T00:49:05.536Z,8.09
2022-11-15T00:50:05.530Z,8.15
2022-11-15T00:51:05.541Z,8.06
2022-11-15T00:52:05.539Z,8.06
2022-11-15T00:53:05.548Z,8.00
2022-11-15T00:54:05.565Z,8.01
2022-11-15T00:55:05.554Z,8.05
2022-11-15T00:56:05.548Z,8.01
2022-11-15T00:57:05.560Z,8.06
2022-11-15T00:58:05.561Z,8.00
2022-11-15T00:59:05.566Z,8.06
2022-11-15T01:00:05.567Z,8.08
2022-11-15T01:01:05.610Z,8.08
2022-11-15T01:02:05.578Z,8.08
2022-11-15T01:03:05.576Z,8.01
2022-11-15T01:04:05.580Z,8.15
2022-11-15T01:05:05.583Z,8.18
2022-11-15T01:06:05.581Z,8.10
2022-11-15T01:07:05.661Z,8.09
2022-11-15T01:08:05.586Z,8.13
2022-11-15T01:09:05.590Z,8.12
2022-11-15T01:10:05.612Z,8.05
2022-11-15T01:11:05.596Z,8.09
2022-11-15T01:12:05.601Z,8.13
2022-11-15T01:13:05.610Z,8.05
2022-11-15T01:14:05.611Z,8.15
2022-11-15T01:15:05.609Z,8.05
2022-11-15T01:16:05.611Z,8.09
2022-11-15T01:17:05.616Z,8.03
2022-11-15T01:18:05.618Z,7.98
2022-11-15T01:19:05.621Z,8.00
2022-11-15T01:20:05.630Z,7.91
2022-11-15T01:21:05.635Z,7.95
2022-11-15T01:22:05.630Z,7.97
2022-11-15T01:23:05.634Z,7.97
2022-11-15T01:24:05.637Z,7.95
2022-11-15T01:25:05.646Z,8.00
2022-11-15T01:26:05.678Z,7.93
2022-11-15T01:27:05.655Z,7.98
2022-11-15T01:28:05.661Z,7.97
2022-11-15T01:29:05.650Z,7.95
2022-11-15T01:30:05.661Z,7.87
2022-11-15T01:31:05.665Z,7.90
2022-11-15T01:32:05.678Z,7.91
2022-11-15T01:33:05.664Z,7.85
2022-11-15T01:34:05.676Z,7.90
2022-11-15T01:35:05.677Z,7.93
2022-11-15T01:36:05.683Z,7.87
2022-11-15T01:37:05.684Z,7.90
2022-11-15T01:38:05.682Z,7.88
2022-11-15T01:39:05.688Z,7.90
2022-11-15T01:40:05.688Z,7.87
2022-11-15T01:41:05.696Z,7.90
2022-11-15T01:42:05.721Z,7.87
2022-11-15T01:43:05.704Z,7.85
2022-11-15T01:44:05.706Z,7.80
2022-11-15T01:45:05.703Z,7.80
2022-11-15T01:46:05.712Z,7.85
2022-11-15T01:47:05.719Z,7.91
2022-11-15T01:48:05.717Z,7.93
2022-11-15T01:49:05.715Z,7.77
2022-11-15T01:50:05.724Z,7.87
2022-11-15T01:51:05.729Z,7.79
2022-11-15T01:52:05.732Z,7.76
2022-11-15T01:53:05.735Z,7.73
2022-11-15T01:54:05.732Z,7.73
2022-11-15T01:55:05.741Z,7.75
2022-11-15T01:56:05.743Z,7.69
2022-11-15T01:57:05.740Z,7.80
2022-11-15T01:58:05.765Z,7.73
2022-11-15T01:59:05.746Z,7.75
2022-11-15T02:00:05.748Z,7.76
2022-11-15T02:01:05.871Z,7.72
2022-11-15T02:02:05.764Z,7.75
2022-11-15T02:03:05.755Z,7.77
2022-11-15T02:04:05.767Z,7.77
2022-11-15T02:05:05.769Z,7.75
2022-11-15T02:06:05.767Z,7.70
2022-11-15T02:07:05.781Z,7.69
2022-11-15T02:08:05.780Z,7.76
2022-11-15T02:09:05.774Z,7.76
2022-11-15T02:10:05.787Z,7.77
2022-11-15T02:11:05.780Z,7.77
2022-11-15T02:12:05.791Z,7.75
2022-11-15T02:13:05.794Z,7.75
2022-11-15T02:14:05.813Z,7.70
2022-11-15T02:15:05.801Z,7.76
2022-11-15T02:16:05.804Z,7.83
2022-11-15T02:17:05.798Z,7.75
2022-11-15T02:18:05.810Z,7.88
2022-11-15T02:19:05.813Z,7.82
2022-11-15T02:20:05.815Z,7.88
2022-11-15T02:21:05.812Z,7.82
2022-11-15T02:22:05.822Z,7.79
2022-11-15T02:23:05.825Z,7.85
2022-11-15T02:24:05.826Z,7.79
2022-11-15T02:25:05.833Z,7.85
2022-11-15T02:26:05.826Z,7.94
2022-11-15T02:27:05.838Z,7.90
2022-11-15T02:28:05.832Z,7.90
2022-11-15T02:29:05.844Z,7.88
2022-11-15T02:30:05.887Z,7.88
2022-11-15T02:31:05.844Z,7.90
2022-11-15T02:32:05.852Z,7.88
2022-11-15T02:33:05.849Z,7.75
2022-11-15T02:34:05.851Z,7.77
2022-11-15T02:35:05.860Z,7.85
2022-11-15T02:36:05.858Z,7.76
2022-11-15T02:37:05.874Z,7.73
2022-11-15T02:38:05.872Z,7.87
2022-11-15T02:39:05.872Z,7.72
2022-11-15T02:40:05.869Z,7.77
2022-11-15T02:41:05.883Z,7.73
2022-11-15T02:42:05.884Z,7.73
2022-11-15T02:43:08.448Z,7.70
2022-11-15T02:44:05.883Z,7.66
2022-11-15T02:45:05.884Z,7.72
2022-11-15T02:46:05.920Z,7.72
2022-11-15T02:47:05.889Z,7.72
2022-11-15T02:48:05.903Z,7.69
2022-11-15T02:49:05.904Z,7.72
2022-11-15T02:50:05.904Z,7.69
2022-11-15T02:51:05.901Z,7.63
2022-11-15T02:52:05.906Z,7.66
2022-11-15T02:53:05.919Z,7.70
2022-11-15T02:54:05.912Z,7.67
2022-11-15T02:55:05.916Z,7.60
2022-11-15T02:56:05.926Z,7.63
2022-11-15T02:57:05.920Z,7.67
2022-11-15T02:58:05.932Z,7.61
2022-11-15T02:59:05.926Z,7.63
2022-11-15T03:00:05.938Z,7.60
2022-11-15T03:01:05.989Z,7.60
2022-11-15T03:02:05.964Z,7.60
2022-11-15T03:03:05.937Z,7.63
2022-11-15T03:04:05.942Z,7.53
2022-11-15T03:05:05.947Z,7.60
2022-11-15T03:06:05.947Z,7.63
2022-11-15T03:07:06.041Z,7.63
2022-11-15T03:08:05.954Z,7.67
2022-11-15T03:09:05.966Z,7.67
2022-11-15T03:10:05.958Z,7.58
2022-11-15T03:11:05.971Z,7.63
2022-11-15T03:12:05.964Z,7.60
2022-11-15T03:13:05.975Z,7.63
2022-11-15T03:14:05.969Z,7.63
2022-11-15T03:15:05.980Z,7.61
2022-11-15T03:16:05.977Z,7.69
2022-11-15T03:17:05.988Z,7.61
2022-11-15T03:18:06.006Z,7.60
2022-11-15T03:19:05.984Z,7.61
2022-11-15T03:20:05.988Z,7.66
2022-11-15T03:21:05.998Z,7.63
2022-11-15T03:22:05.993Z,7.57
2022-11-15T03:23:05.998Z,7.63
2022-11-15T03:24:05.999Z,7.66
2022-11-15T03:25:06.003Z,7.67
2022-11-15T03:26:06.006Z,7.60
2022-11-15T03:27:06.016Z,7.66
2022-11-15T03:28:06.012Z,7.69
2022-11-15T03:29:06.022Z,7.61
2022-11-15T03:30:06.026Z,7.63
2022-11-15T03:31:06.018Z,7.67
2022-11-15T03:32:06.031Z,7.61
2022-11-15T03:33:06.025Z,7.66
2022-11-15T03:34:06.050Z,7.61
2022-11-15T03:35:06.030Z,7.58
2022-11-15T03:36:06.042Z,7.58
2022-11-15T03:37:06.039Z,7.63
2022-11-15T03:38:06.086Z,7.58
2022-11-15T03:39:06.050Z,7.66
2022-11-15T03:40:06.047Z,7.61
2022-11-15T03:41:06.047Z,7.60
2022-11-15T03:42:06.060Z,7.61
2022-11-15T03:43:06.061Z,7.61
2022-11-15T03:44:06.060Z,7.61
2022-11-15T03:45:06.069Z,7.66
2022-11-15T03:46:06.061Z,7.60
2022-11-15T03:47:06.073Z,7.70
2022-11-15T03:48:06.075Z,7.61
2022-11-15T03:49:06.072Z,7.70
2022-11-15T03:50:06.106Z,7.75
2022-11-15T03:51:06.079Z,7.72
2022-11-15T03:52:06.087Z,7.70
2022-11-15T03:53:06.093Z,7.66
2022-11-15T03:54:06.098Z,7.66
2022-11-15T03:55:06.088Z,7.72
2022-11-15T03:56:06.102Z,7.69
2022-11-15T03:57:06.104Z,7.63
2022-11-15T03:58:06.100Z,7.63
2022-11-15T03:59:06.101Z,7.70
2022-11-15T04:00:06.103Z,7.67
2022-11-15T04:01:06.200Z,7.66
2022-11-15T04:02:06.119Z,7.58
2022-11-15T04:03:06.118Z,7.60
2022-11-15T04:04:06.117Z,7.63
2022-11-15T04:05:06.119Z,7.66
2022-11-15T04:06:06.144Z,7.56
2022-11-15T04:07:06.187Z,7.63
2022-11-15T04:08:06.128Z,7.61
2022-11-15T04:09:06.136Z,7.60
2022-11-15T04:10:06.141Z,7.66
2022-11-15T04:11:06.143Z,7.58
2022-11-15T04:12:06.138Z,7.53
2022-11-15T04:13:06.151Z,7.51
2022-11-15T04:14:06.153Z,7.48
2022-11-15T04:15:06.153Z,7.57
2022-11-15T04:16:06.159Z,7.51
2022-11-15T04:17:06.153Z,7.51
2022-11-15T04:18:06.167Z,7.54
2022-11-15T04:19:06.167Z,7.56
2022-11-15T04:20:06.167Z,7.58
2022-11-15T04:21:06.173Z,7.60
2022-11-15T04:22:06.188Z,7.51
2022-11-15T04:23:06.178Z,7.57
2022-11-15T04:24:06.192Z,7.53
2022-11-15T04:25:06.178Z,7.51
2022-11-15T04:26:06.183Z,7.54
2022-11-15T04:27:06.182Z,7.56
2022-11-15T04:28:06.184Z,7.51
2022-11-15T04:29:06.188Z,7.50
2022-11-15T04:30:06.197Z,7.48
2022-11-15T04:31:06.193Z,7.50
2022-11-15T04:32:06.203Z,7.53
2022-11-15T04:33:06.210Z,7.42
2022-11-15T04:34:06.200Z,7.51
2022-11-15T04:35:06.210Z,7.54
2022-11-15T04:36:06.208Z,7.54
2022-11-15T04:37:06.216Z,7.47
2022-11-15T04:38:06.235Z,7.47
2022-11-15T04:39:06.214Z,7.54
2022-11-15T04:40:06.226Z,7.56
2022-11-15T04:41:06.226Z,7.57
2022-11-15T04:42:06.233Z,7.50
2022-11-15T04:43:06.225Z,7.48
2022-11-15T04:44:06.241Z,7.53
2022-11-15T04:45:06.238Z,7.48
2022-11-15T04:46:06.235Z,7.45
2022-11-15T04:47:06.244Z,7.45
2022-11-15T04:48:06.249Z,7.40
2022-11-15T04:49:06.253Z,7.47
2022-11-15T04:50:06.247Z,7.42
2022-11-15T04:51:06.247Z,7.36
2022-11-15T04:52:06.251Z,7.39
2022-11-15T04:53:06.263Z,7.33
2022-11-15T04:54:06.280Z,7.33
2022-11-15T04:55:08.271Z,7.40
2022-11-15T04:56:06.274Z,7.38
2022-11-15T04:57:06.274Z,7.43
2022-11-15T04:58:06.275Z,7.40
2022-11-15T04:59:06.279Z,7.45
2022-11-15T05:00:06.279Z,7.31
2022-11-15T05:01:06.321Z,7.42
2022-11-15T05:02:06.286Z,7.43
2022-11-15T05:03:06.289Z,7.47
2022-11-15T05:04:06.300Z,7.39
2022-11-15T05:05:06.287Z,7.39
2022-11-15T05:06:06.289Z,7.45
2022-11-15T05:07:06.366Z,7.39
2022-11-15T05:08:06.296Z,7.40
2022-11-15T05:09:06.304Z,7.40
2022-11-15T05:10:06.319Z,7.48
2022-11-15T05:11:06.301Z,7.45
2022-11-15T05:12:06.305Z,7.40
2022-11-15T05:13:06.307Z,7.42
2022-11-15T05:14:06.310Z,7.45
2022-11-15T05:15:06.313Z,7.40
2022-11-15T05:16:06.326Z,7.40
2022-11-15T05:17:06.318Z,7.40
2022-11-15T05:18:06.323Z,7.45
2022-11-15T05:19:06.323Z,7.47
2022-11-15T05:20:06.335Z,7.47
2022-11-15T05:21:06.330Z,7.42
2022-11-15T05:22:06.334Z,7.38
2022-11-15T05:23:06.342Z,7.40
2022-11-15T05:24:06.346Z,7.48
2022-11-15T05:25:06.348Z,7.40
2022-11-15T05:26:09.219Z,7.38
2022-11-15T05:27:06.352Z,7.43
2022-11-15T05:28:06.349Z,7.40
2022-11-15T05:29:06.352Z,7.39
2022-11-15T05:30:06.362Z,7.43
2022-11-15T05:31:06.376Z,7.47
2022-11-15T05:32:06.366Z,7.47
2022-11-15T05:33:06.364Z,7.39
2022-11-15T05:34:06.372Z,7.53
2022-11-15T05:35:06.368Z,7.47
2022-11-15T05:36:06.377Z,7.51
2022-11-15T05:37:06.384Z,7.47
2022-11-15T05:38:06.383Z,7.51
2022-11-15T05:39:07.828Z,7.47
2022-11-15T05:40:06.388Z,7.50
2022-11-15T05:41:06.386Z,7.56
2022-11-15T05:42:06.413Z,7.57
2022-11-15T05:43:06.403Z,7.54
2022-11-15T05:44:06.393Z,7.50
2022-11-15T05:45:06.403Z,7.54
2022-11-15T05:46:06.407Z,7.67
2022-11-15T05:47:06.402Z,7.60
2022-11-15T05:48:06.406Z,7.60
2022-11-15T05:49:06.406Z,7.63
2022-11-15T05:50:06.411Z,7.70
2022-11-15T05:51:06.419Z,7.75
2022-11-15T05:52:06.417Z,7.73
2022-11-15T05:53:06.425Z,7.75
2022-11-15T05:54:06.434Z,7.69
2022-11-15T05:55:06.430Z,7.75
2022-11-15T05:56:06.450Z,7.75
2022-11-15T05:57:06.429Z,7.69
2022-11-15T05:58:06.547Z,7.73
2022-11-15T05:59:06.439Z,7.72
2022-11-15T06:00:06.446Z,7.63
2022-11-15T06:01:06.445Z,7.63
2022-11-15T06:02:06.512Z,7.69
2022-11-15T06:03:06.448Z,7.70
2022-11-15T06:04:06.449Z,7.77
2022-11-15T06:05:06.452Z,7.61
2022-11-15T06:06:06.455Z,7.69
2022-11-15T06:07:06.501Z,7.60
2022-11-15T06:08:06.462Z,7.63
2022-11-15T06:09:06.472Z,7.61
2022-11-15T06:10:06.473Z,7.58
2022-11-15T06:11:06.468Z,7.58
2022-11-15T06:12:06.482Z,7.66
2022-11-15T06:13:06.485Z,7.60
2022-11-15T06:14:06.496Z,7.63
2022-11-15T06:15:06.491Z,7.70
2022-11-15T06:16:06.481Z,7.63
2022-11-15T06:17:11.154Z,7.77
2022-11-15T06:18:06.492Z,7.77
2022-11-15T06:19:06.491Z,7.76
2022-11-15T06:20:06.504Z,7.75
2022-11-15T06:21:06.506Z,7.83
2022-11-15T06:22:06.501Z,7.83
2022-11-15T06:23:06.512Z,7.69
2022-11-15T06:24:06.505Z,7.85
2022-11-15T06:25:06.515Z,7.88
2022-11-15T06:26:06.521Z,7.79
2022-11-15T06:27:06.519Z,7.80
2022-11-15T06:28:06.516Z,7.83
2022-11-15T06:29:06.529Z,7.77
2022-11-15T06:30:06.558Z,7.82
2022-11-15T06:31:06.524Z,7.80
2022-11-15T06:32:06.528Z,7.95
2022-11-15T06:33:06.534Z,7.82
2022-11-15T06:34:06.538Z,7.94
2022-11-15T06:35:06.543Z,7.85
2022-11-15T06:36:06.547Z,7.88
2022-11-15T06:37:06.554Z,7.85
2022-11-15T06:38:06.548Z,7.91
2022-11-15T06:39:06.559Z,7.94
2022-11-15T06:40:06.551Z,7.95
2022-11-15T06:41:06.563Z,8.00
2022-11-15T06:42:06.559Z,8.01
2022-11-15T06:43:06.562Z,7.97
2022-11-15T06:44:06.565Z,8.09
2022-11-15T06:45:06.567Z,8.16
2022-11-15T06:46:06.623Z,8.19
2022-11-15T06:47:06.590Z,8.23
2022-11-15T06:48:06.582Z,8.18
2022-11-15T06:49:09.565Z,8.31
2022-11-15T06:50:06.583Z,8.31
2022-11-15T06:51:06.583Z,8.30
2022-11-15T06:52:06.589Z,8.31
2022-11-15T06:53:06.598Z,8.33
2022-11-15T06:54:06.600Z,8.36
2022-11-15T06:55:06.597Z,8.31
2022-11-15T06:56:06.599Z,8.27
2022-11-15T06:57:06.602Z,8.30
2022-11-15T06:58:06.606Z,8.30
2022-11-15T06:59:06.610Z,8.31
2022-11-15T07:00:06.619Z,8.28
2022-11-15T07:01:06.684Z,8.28
2022-11-15T07:02:06.648Z,8.33
2022-11-15T07:03:06.621Z,8.33
2022-11-15T07:04:06.629Z,8.33
2022-11-15T07:05:06.635Z,8.31
2022-11-15T07:06:07.647Z,8.30
2022-11-15T07:07:06.734Z,8.30
2022-11-15T07:08:06.636Z,8.30
2022-11-15T07:09:06.646Z,8.28
2022-11-15T07:10:06.649Z,8.31
2022-11-15T07:11:06.649Z,8.36
2022-11-15T07:12:08.010Z,8.44
2022-11-15T07:13:06.650Z,8.38
2022-11-15T07:14:06.663Z,8.42
2022-11-15T07:15:06.663Z,8.41
2022-11-15T07:16:06.660Z,8.51
2022-11-15T07:17:06.662Z,8.41
2022-11-15T07:18:06.686Z,8.45
2022-11-15T07:19:06.667Z,8.52
2022-11-15T07:20:06.672Z,8.46
2022-11-15T07:21:06.681Z,8.48
2022-11-15T07:22:06.680Z,8.49
2022-11-15T07:23:06.686Z,8.53
2022-11-15T07:24:06.684Z,8.58
2022-11-15T07:25:06.687Z,8.63
2022-11-15T07:26:06.698Z,8.60
2022-11-15T07:27:06.700Z,8.67
2022-11-15T07:28:06.703Z,8.66
2022-11-15T07:29:06.700Z,8.78
2022-11-15T07:30:06.702Z,8.74
2022-11-15T07:31:06.715Z,8.78
2022-11-15T07:32:06.708Z,8.88
2022-11-15T07:33:06.722Z,8.94
2022-11-15T07:34:06.735Z,8.89
2022-11-15T07:35:06.727Z,8.94
2022-11-15T07:36:06.730Z,9.08
2022-11-15T07:37:06.726Z,9.13
2022-11-15T07:38:06.734Z,9.37
2022-11-15T07:39:06.740Z,9.65
2022-11-15T07:40:06.740Z,10.15
2022-11-15T07:41:06.739Z,10.68
2022-11-15T07:42:06.744Z,11.18
2022-11-15T07:43:06.751Z,11.72
2022-11-15T07:44:06.748Z,12.40
2022-11-15T07:45:06.752Z,12.90
2022-11-15T07:46:06.762Z,13.38
2022-11-15T07:47:06.768Z,13.90
2022-11-15T07:48:06.768Z,14.32
2022-11-15T07:49:06.778Z,14.66
2022-11-15T07:50:06.795Z,15.22
2022-11-15T07:51:11.227Z,15.61
2022-11-15T07:52:06.783Z,15.95
2022-11-15T07:53:06.792Z,16.24
2022-11-15T07:54:06.786Z,16.53
2022-11-15T08:14:45.726Z,19.11
2022-11-15T08:15:45.721Z,19.30
2022-11-15T08:16:45.727Z,19.47
2022-11-15T08:17:45.729Z,19.52
2022-11-15T08:18:45.733Z,19.63
2022-11-15T08:19:45.741Z,19.67
2022-11-15T08:20:45.753Z,19.85
2022-11-15T08:21:45.754Z,19.86
2022-11-15T08:22:47.189Z,19.99
2022-11-15T08:23:45.769Z,20.00
2022-11-15T08:24:45.781Z,19.95
2022-11-15T08:25:45.785Z,19.73
2022-11-15T08:26:45.855Z,19.67
2022-11-15T08:27:45.802Z,19.64
2022-11-15T08:28:45.819Z,19.64
2022-11-15T08:29:45.824Z,19.71
2022-11-15T08:30:45.859Z,19.69
2022-11-15T08:31:45.841Z,19.67
2022-11-15T08:32:45.845Z,19.69
2022-11-15T08:33:47.269Z,19.76
2022-11-15T08:34:45.860Z,19.81
2022-11-15T08:35:45.882Z,19.69
2022-11-15T08:36:46.351Z,19.82
2022-11-15T08:37:45.893Z,19.89
2022-11-15T08:38:45.901Z,20.14
2022-11-15T08:39:45.903Z,20.19
2022-11-15T08:40:45.913Z,20.31
2022-11-15T08:41:45.922Z,20.19
2022-11-15T08:42:45.938Z,20.14
2022-11-15T08:43:45.947Z,19.92
2022-11-15T08:44:45.955Z,19.86
2022-11-15T08:45:45.959Z,19.88
2022-11-15T08:46:45.995Z,19.79
2022-11-15T08:47:51.130Z,19.84
2022-11-15T08:48:45.992Z,19.88
2022-11-15T08:49:46.003Z,20.06
2022-11-15T08:50:46.003Z,20.32
2022-11-15T08:51:46.035Z,20.47
2022-11-15T08:52:46.030Z,20.75
2022-11-15T08:53:46.040Z,20.93
2022-11-15T08:54:46.045Z,21.25
2022-11-15T08:55:46.052Z,21.35
2022-11-15T08:56:46.068Z,21.62
2022-11-15T08:57:46.080Z,21.61
2022-11-15T08:58:46.085Z,21.60
2022-11-15T08:59:46.103Z,21.70
2022-11-15T09:00:46.115Z,21.70
2022-11-15T09:01:46.220Z,21.60
2022-11-15T09:02:46.156Z,21.60
2022-11-15T09:04:58.745Z,21.64
2022-11-15T09:05:58.762Z,21.76
2022-11-15T09:06:58.809Z,21.72
2022-11-15T11:06:37.057Z,21.30
2022-11-15T11:07:37.078Z,21.57
2022-11-15T11:08:37.042Z,21.69
2022-11-15T11:09:37.053Z,22.00
2022-11-15T11:10:51.195Z,22.15
2022-11-15T13:23:11.870Z,16.47
2022-11-15T13:24:11.856Z,16.42
2022-11-15T13:25:11.864Z,16.35
2022-11-15T13:26:11.871Z,16.32
2022-11-15T13:27:11.880Z,16.28
2022-11-15T13:28:11.893Z,16.29
2022-11-15T13:29:11.904Z,16.24
2022-11-15T13:30:11.911Z,16.16
2022-11-15T13:31:11.923Z,16.21
2022-11-15T13:32:11.930Z,16.26
2022-11-15T13:33:11.936Z,16.17
2022-11-15T13:34:36.080Z,16.28
2022-11-15T13:35:11.953Z,16.13
2022-11-15T13:36:11.962Z,16.15
2022-11-15T13:37:11.962Z,16.13
2022-11-15T13:38:11.973Z,16.05
2022-11-15T13:39:12.007Z,16.02
2022-11-15T13:40:11.996Z,16.02
2022-11-15T13:41:11.995Z,16.02
2022-11-15T13:42:12.003Z,16.05
2022-11-15T13:43:12.020Z,16.05
2022-11-15T13:44:12.030Z,16.02
2022-11-15T13:45:12.030Z,15.97
2022-11-15T13:46:12.052Z,15.91
2022-11-15T13:47:12.053Z,15.97
2022-11-15T13:48:12.063Z,15.88
2022-11-15T13:49:12.067Z,15.92
2022-11-15T13:50:12.509Z,15.88
2022-11-15T13:51:12.087Z,15.82
2022-11-15T13:52:12.094Z,15.95
2022-11-15T13:53:12.100Z,15.84
2022-11-15T13:54:12.169Z,15.86
2022-11-15T13:55:12.356Z,15.98
2022-11-15T13:56:12.129Z,15.97
2022-11-15T13:57:12.131Z,15.86
2022-11-15T13:58:14.145Z,15.91
2022-11-15T13:59:12.155Z,15.95
2022-11-15T14:00:12.160Z,15.88
2022-11-15T14:01:12.172Z,15.83
2022-11-15T14:02:12.171Z,15.90
2022-11-15T14:03:12.188Z,15.82
2022-11-15T14:04:12.189Z,15.77
2022-11-15T14:05:12.204Z,15.76
2022-11-15T14:06:12.209Z,15.79
2022-11-15T14:07:12.262Z,15.76
2022-11-15T14:08:12.232Z,15.82
2022-11-15T14:09:12.292Z,15.80
2022-11-15T14:10:12.248Z,15.77
2022-11-15T14:11:12.267Z,15.75
2022-11-15T14:12:12.265Z,15.62
2022-11-15T14:13:12.271Z,15.55
2022-11-15T14:14:12.275Z,15.64
2022-11-15T14:15:12.280Z,15.59
2022-11-15T14:16:12.301Z,15.64
2022-11-15T14:17:12.298Z,15.64
2022-11-15T14:18:12.314Z,15.64
2022-11-15T14:19:12.314Z,15.54
2022-11-15T14:20:12.336Z,15.51
2022-11-15T14:21:12.364Z,15.55
2022-11-15T14:38:59.781Z,15.24
2022-11-15T15:55:53.417Z,14.58
2022-11-15T15:56:56.152Z,14.58
2022-11-15T15:57:53.406Z,14.58
2022-11-15T15:58:53.416Z,14.48
2022-11-15T15:59:53.421Z,14.59
2022-11-15T16:00:53.460Z,14.53
2022-11-15T16:01:53.435Z,14.50
2022-11-15T16:02:53.447Z,14.58
2022-11-15T16:03:53.459Z,14.44
2022-11-15T16:04:53.465Z,14.48
2022-11-15T16:05:53.473Z,14.35
2022-11-15T16:06:53.805Z,14.36
2022-11-15T16:07:53.480Z,14.41
2022-11-15T16:09:14.141Z,14.35
2022-11-15T16:09:53.492Z,14.32
2022-11-15T16:10:53.503Z,14.30
2022-11-15T16:11:53.545Z,14.32
2022-11-15T16:12:53.520Z,14.23
2022-11-15T16:13:53.522Z,14.20
2022-11-15T16:14:53.529Z,14.23
2022-11-15T16:15:53.544Z,14.23
2022-11-15T17:27:41.056Z,13.20
2022-11-15T17:28:41.042Z,13.19
2022-11-15T17:29:41.056Z,13.23
2022-11-15T17:30:41.064Z,13.25
2022-11-15T17:31:41.067Z,13.23
2022-11-15T17:32:41.069Z,13.19
2022-11-15T17:33:41.079Z,13.16
2022-11-15T17:34:41.080Z,13.19
2022-11-15T17:35:41.094Z,13.18
2022-11-15T17:36:41.099Z,13.25
2022-11-15T17:37:41.098Z,13.15
2022-11-15T17:38:41.113Z,13.22
2022-11-15T17:39:41.113Z,13.22
2022-11-15T17:40:41.118Z,13.08
2022-11-15T17:41:41.132Z,13.11
2022-11-15T17:42:41.135Z,13.13
2022-11-15T17:43:41.183Z,13.13
2022-11-15T17:44:41.145Z,13.08
2022-11-15T17:45:41.148Z,13.08
2022-11-15T17:46:41.164Z,12.98
2022-11-15T17:47:41.170Z,12.98
2022-11-15T17:48:41.171Z,12.95
2022-11-15T17:49:41.173Z,12.91
2022-11-15T17:50:41.182Z,12.79
2022-11-15T17:51:42.444Z,12.82
2022-11-15T17:52:41.192Z,12.82
2022-11-15T17:53:41.207Z,12.73
2022-11-15T17:54:41.206Z,12.79
2022-11-15T17:55:41.212Z,12.60
2022-11-15T17:56:41.219Z,12.68
2022-11-15T17:57:41.222Z,12.70
2022-11-15T17:58:41.231Z,12.54
2022-11-15T17:59:41.257Z,12.60
2022-11-15T18:00:41.267Z,12.61
2022-11-15T18:01:41.257Z,12.73
2022-11-15T18:02:41.262Z,12.58
2022-11-15T18:03:41.270Z,12.64
2022-11-15T18:04:41.267Z,12.62
2022-11-15T18:05:41.273Z,12.64
2022-11-15T18:06:41.280Z,12.58
2022-11-15T18:07:41.286Z,12.50
2022-11-15T18:08:41.290Z,12.50
2022-11-15T18:09:41.303Z,12.49
2022-11-15T18:10:41.311Z,12.47
2022-11-15T18:11:41.341Z,12.50
2022-11-15T18:12:41.316Z,12.49
2022-11-15T18:13:41.323Z,12.50
2022-11-15T18:14:41.335Z,12.50
2022-11-15T18:15:41.367Z,12.53
2022-11-15T18:16:41.351Z,12.47
2022-11-15T18:17:41.345Z,12.46
2022-11-15T18:18:41.351Z,12.40
2022-11-15T18:19:41.360Z,12.45
2022-11-15T18:20:41.363Z,12.39
2022-11-15T18:21:41.377Z,12.49
2022-11-15T18:22:41.378Z,12.37
2022-11-15T18:23:41.382Z,12.43
2022-11-15T18:24:41.387Z,12.43
2022-11-15T18:26:26.843Z,12.39
2022-11-15T18:27:23.946Z,12.39
2022-11-15T18:28:23.954Z,12.46
2022-11-15T18:29:23.957Z,12.37
2022-11-15T18:30:23.960Z,12.40
2022-11-15T18:31:23.994Z,12.36
2022-11-15T18:32:23.977Z,12.42
2022-11-15T18:33:23.984Z,12.39
2022-11-15T18:34:23.981Z,12.37
2022-11-15T18:35:23.996Z,12.31
2022-11-15T18:36:24.003Z,12.32
2022-11-15T18:37:24.005Z,12.21
2022-11-15T18:38:24.005Z,12.20
2022-11-15T18:39:24.018Z,12.22
2022-11-15T18:40:24.017Z,12.21
2022-11-15T18:41:24.028Z,12.21
2022-11-15T18:42:24.037Z,12.25
2022-11-15T18:43:24.041Z,12.20
2022-11-15T18:44:24.066Z,12.20
2022-11-15T18:46:51.710Z,12.25
2022-11-15T18:47:51.683Z,12.21
2022-11-15T18:48:51.690Z,12.24
2022-11-15T18:49:51.733Z,12.24
2022-11-15T18:50:53.990Z,12.22
2022-11-15T18:51:51.710Z,12.21
2022-11-15T18:52:51.719Z,12.22
2022-11-15T18:53:51.716Z,12.24
2022-11-15T18:54:51.721Z,12.15
2022-11-15T18:55:51.734Z,12.25
2022-11-15T18:56:51.741Z,12.20
2022-11-15T18:57:51.746Z,12.17
2022-11-15T18:58:51.753Z,12.10
2022-11-15T18:59:51.777Z,12.10
2022-11-15T19:00:51.835Z,12.13
2022-11-15T19:01:51.769Z,12.13
2022-11-15T19:02:51.795Z,12.13
2022-11-15T19:03:51.772Z,12.09
2022-11-15T19:04:51.779Z,12.07
2022-11-15T19:05:51.793Z,11.94
2022-11-15T19:06:51.871Z,11.95
2022-11-15T19:07:51.803Z,11.99
2022-11-15T19:08:51.809Z,11.95
2022-11-15T19:09:51.815Z,11.99
2022-11-15T19:10:51.813Z,11.97
2022-11-15T19:11:51.976Z,11.99
2022-11-15T19:12:51.826Z,11.95
2022-11-15T19:13:51.837Z,11.86
2022-11-15T19:14:51.837Z,11.84
2022-11-15T19:15:51.850Z,11.78
2022-11-15T19:16:51.846Z,11.86
2022-11-15T19:17:51.863Z,11.78
2022-11-15T19:18:51.887Z,11.81
2022-11-15T19:19:51.866Z,11.78
2022-11-15T19:20:51.878Z,11.86
2022-11-15T19:21:51.884Z,11.83
2022-11-15T19:22:51.879Z,11.78
2022-11-15T19:23:51.894Z,11.88
2022-11-15T19:24:51.892Z,11.86
2022-11-15T19:25:51.904Z,11.78
2022-11-15T19:26:51.913Z,11.80
2022-11-15T19:27:51.914Z,11.81
2022-11-15T19:28:51.916Z,11.77
2022-11-15T19:29:51.928Z,11.78
2022-11-15T19:30:51.934Z,11.77
2022-11-15T19:31:51.939Z,11.72
2022-11-15T19:32:51.940Z,11.80
2022-11-15T19:33:51.954Z,11.78
2022-11-15T19:34:51.977Z,11.87
2022-11-15T19:35:51.963Z,11.70
2022-11-15T19:36:51.966Z,11.78
2022-11-15T19:37:51.968Z,11.73
2022-11-15T19:38:51.971Z,11.81
2022-11-15T19:39:51.979Z,11.70
2022-11-15T19:40:51.994Z,11.77
2022-11-15T19:41:52.001Z,11.73
2022-11-15T19:42:52.004Z,11.77
2022-11-15T19:43:52.009Z,11.87
2022-11-15T19:44:52.010Z,11.81
2022-11-15T19:45:52.021Z,11.80
2022-11-15T19:46:52.015Z,11.86
2022-11-15T19:47:52.032Z,11.81
2022-11-15T19:48:52.029Z,11.88
2022-11-15T19:49:52.040Z,11.88
2022-11-15T19:50:52.061Z,11.91
2022-11-15T19:51:52.044Z,11.94
2022-11-15T19:52:52.058Z,11.99
2022-11-15T19:53:52.055Z,11.94
2022-11-15T19:54:52.063Z,11.94
2022-11-15T19:55:52.066Z,12.00
2022-11-15T19:56:52.081Z,11.87
2022-11-15T19:57:52.080Z,11.91
2022-11-15T19:58:52.090Z,11.95
2022-11-15T19:59:52.096Z,11.99
2022-11-15T20:00:52.173Z,11.99
2022-11-15T20:01:52.108Z,11.90
2022-11-15T20:02:52.108Z,11.88
2022-11-15T20:03:52.114Z,11.80
2022-11-15T20:04:52.126Z,11.83
2022-11-15T20:05:52.125Z,11.77
2022-11-15T20:06:52.167Z,11.88
2022-11-15T20:07:52.138Z,11.81
2022-11-15T20:08:52.141Z,11.86
2022-11-15T20:09:52.149Z,11.84
2022-11-15T20:10:52.151Z,11.87
2022-11-15T20:11:52.159Z,11.87
2022-11-15T20:12:52.165Z,11.84
2022-11-15T20:13:52.176Z,11.88
2022-11-15T20:14:52.182Z,11.88
2022-11-15T20:15:52.189Z,11.87
2022-11-15T20:16:54.463Z,11.91
2022-11-15T20:17:52.201Z,11.86
2022-11-15T20:18:52.205Z,11.86
2022-11-15T20:19:52.212Z,11.84
2022-11-15T20:20:52.215Z,11.88
2022-11-15T20:21:52.216Z,11.81
2022-11-15T20:22:52.242Z,12.00
2022-11-15T20:23:52.226Z,11.94